sensor_id;sensor_type;location;lat;lon;timestamp;temperature;humidity
27314;DHT22;14800;48.174;9.798;2022-07-29T00:01:42;21.20;73.10
27314;DHT22;14800;48.174;9.798;2022-07-29T00:04:08;21.30;73.30
27314;DHT22;14800;48.174;9.798;2022-07-29T00:06:34;21.30;73.30
27314;DHT22;14800;48.174;9.798;2022-07-29T00:08:59;21.30;73.50
27314;DHT22;14800;48.174;9.798;2022-07-29T00:11:25;21.30;73.60
27314;DHT22;14800;48.174;9.798;2022-07-29T00:13:50;21.30;73.60
27314;DHT22;14800;48.174;9.798;2022-07-29T00:16:16;21.30;73.70
27314;DHT22;14800;48.174;9.798;2022-07-29T00:18:41;21.30;73.70
27314;DHT22;14800;48.174;9.798;2022-07-29T00:21:07;21.30;73.70
27314;DHT22;14800;48.174;9.798;2022-07-29T00:23:33;21.40;74.10
27314;DHT22;14800;48.174;9.798;2022-07-29T00:25:58;21.40;74.30
27314;DHT22;14800;48.174;9.798;2022-07-29T00:28:24;21.40;74.50
27314;DHT22;14800;48.174;9.798;2022-07-29T00:30:49;21.40;75.30
27314;DHT22;14800;48.174;9.798;2022-07-29T00:33:15;21.40;74.40
27314;DHT22;14800;48.174;9.798;2022-07-29T00:35:41;21.40;74.10
27314;DHT22;14800;48.174;9.798;2022-07-29T00:38:13;21.40;74.20
27314;DHT22;14800;48.174;9.798;2022-07-29T00:40:40;21.40;74.20
27314;DHT22;14800;48.174;9.798;2022-07-29T00:43:06;21.40;74.10
27314;DHT22;14800;48.174;9.798;2022-07-29T00:45:32;21.40;74.20
27314;DHT22;14800;48.174;9.798;2022-07-29T00:47:58;21.40;74.60
27314;DHT22;14800;48.174;9.798;2022-07-29T00:50:23;21.40;74.50
27314;DHT22;14800;48.174;9.798;2022-07-29T00:52:50;21.40;74.10
27314;DHT22;14800;48.174;9.798;2022-07-29T00:55:17;21.40;74.00
27314;DHT22;14800;48.174;9.798;2022-07-29T00:57:44;21.40;74.00
27314;DHT22;14800;48.174;9.798;2022-07-29T01:00:13;21.40;74.00
27314;DHT22;14800;48.174;9.798;2022-07-29T01:02:39;21.40;74.00
27314;DHT22;14800;48.174;9.798;2022-07-29T01:05:05;21.30;73.80
27314;DHT22;14800;48.174;9.798;2022-07-29T01:07:35;21.30;73.70
27314;DHT22;14800;48.174;9.798;2022-07-29T01:10:03;21.30;73.90
27314;DHT22;14800;48.174;9.798;2022-07-29T01:12:30;21.30;74.00
27314;DHT22;14800;48.174;9.798;2022-07-29T01:15:01;21.30;74.10
27314;DHT22;14800;48.174;9.798;2022-07-29T01:17:36;21.30;73.90
27314;DHT22;14800;48.174;9.798;2022-07-29T01:31:22;21.20;73.20
27314;DHT22;14800;48.174;9.798;2022-07-29T01:33:55;21.20;73.50
27314;DHT22;14800;48.174;9.798;2022-07-29T01:36:27;21.10;73.30
27314;DHT22;14800;48.174;9.798;2022-07-29T01:39:02;21.10;73.50
27314;DHT22;14800;48.174;9.798;2022-07-29T01:41:32;21.00;74.10
27314;DHT22;14800;48.174;9.798;2022-07-29T01:44:02;21.00;73.90
27314;DHT22;14800;48.174;9.798;2022-07-29T01:46:38;21.00;74.20
27314;DHT22;14800;48.174;9.798;2022-07-29T01:49:15;21.00;74.70
27314;DHT22;14800;48.174;9.798;2022-07-29T01:51:59;20.90;75.10
27314;DHT22;14800;48.174;9.798;2022-07-29T01:54:43;20.90;74.20
27314;DHT22;14800;48.174;9.798;2022-07-29T01:57:12;20.80;75.30
27314;DHT22;14800;48.174;9.798;2022-07-29T01:59:38;20.80;74.50
27314;DHT22;14800;48.174;9.798;2022-07-29T02:02:06;20.70;74.20
27314;DHT22;14800;48.174;9.798;2022-07-29T02:04:35;20.60;74.40
27314;DHT22;14800;48.174;9.798;2022-07-29T02:07:04;20.60;74.60
27314;DHT22;14800;48.174;9.798;2022-07-29T02:09:33;20.50;74.70
27314;DHT22;14800;48.174;9.798;2022-07-29T02:12:00;20.40;74.90
27314;DHT22;14800;48.174;9.798;2022-07-29T02:14:30;20.40;74.90
27314;DHT22;14800;48.174;9.798;2022-07-29T02:16:58;20.30;74.90
27314;DHT22;14800;48.174;9.798;2022-07-29T02:19:26;20.30;74.80
27314;DHT22;14800;48.174;9.798;2022-07-29T02:21:55;20.30;75.10
27314;DHT22;14800;48.174;9.798;2022-07-29T02:24:23;20.20;75.30
27314;DHT22;14800;48.174;9.798;2022-07-29T02:26:50;20.20;75.70
27314;DHT22;14800;48.174;9.798;2022-07-29T02:29:17;20.30;75.60
27314;DHT22;14800;48.174;9.798;2022-07-29T02:31:45;20.30;75.60
27314;DHT22;14800;48.174;9.798;2022-07-29T02:34:12;20.30;75.60
27314;DHT22;14800;48.174;9.798;2022-07-29T02:36:40;20.30;75.50
27314;DHT22;14800;48.174;9.798;2022-07-29T02:39:08;20.30;75.30
27314;DHT22;14800;48.174;9.798;2022-07-29T02:41:41;20.40;75.10
27314;DHT22;14800;48.174;9.798;2022-07-29T02:44:13;20.30;75.10
27314;DHT22;14800;48.174;9.798;2022-07-29T02:49:37;20.30;75.40
27314;DHT22;14800;48.174;9.798;2022-07-29T02:52:16;20.30;75.50
27314;DHT22;14800;48.174;9.798;2022-07-29T02:57:40;20.30;75.20
27314;DHT22;14800;48.174;9.798;2022-07-29T03:00:08;20.20;74.60
27314;DHT22;14800;48.174;9.798;2022-07-29T03:02:36;20.20;74.80
27314;DHT22;14800;48.174;9.798;2022-07-29T03:05:04;20.10;74.90
27314;DHT22;14800;48.174;9.798;2022-07-29T03:07:32;20.10;75.00
27314;DHT22;14800;48.174;9.798;2022-07-29T03:09:59;20.10;75.10
27314;DHT22;14800;48.174;9.798;2022-07-29T03:12:25;20.10;75.10
27314;DHT22;14800;48.174;9.798;2022-07-29T03:14:52;20.10;75.30
27314;DHT22;14800;48.174;9.798;2022-07-29T03:17:18;20.10;75.10
27314;DHT22;14800;48.174;9.798;2022-07-29T03:19:45;20.10;74.90
27314;DHT22;14800;48.174;9.798;2022-07-29T03:22:11;20.10;74.90
27314;DHT22;14800;48.174;9.798;2022-07-29T03:24:37;20.10;74.70
27314;DHT22;14800;48.174;9.798;2022-07-29T03:27:04;20.10;74.40
27314;DHT22;14800;48.174;9.798;2022-07-29T03:29:30;20.00;74.20
27314;DHT22;14800;48.174;9.798;2022-07-29T03:31:56;20.00;74.50
27314;DHT22;14800;48.174;9.798;2022-07-29T03:34:22;20.00;74.60
27314;DHT22;14800;48.174;9.798;2022-07-29T03:36:48;19.90;74.50
27314;DHT22;14800;48.174;9.798;2022-07-29T03:39:20;19.90;74.40
27314;DHT22;14800;48.174;9.798;2022-07-29T03:41:49;19.90;75.00
27314;DHT22;14800;48.174;9.798;2022-07-29T03:44:18;19.90;74.90
27314;DHT22;14800;48.174;9.798;2022-07-29T03:46:46;19.90;74.70
27314;DHT22;14800;48.174;9.798;2022-07-29T03:49:14;19.90;74.90
27314;DHT22;14800;48.174;9.798;2022-07-29T03:51:41;19.90;74.80
27314;DHT22;14800;48.174;9.798;2022-07-29T03:54:07;19.80;74.60
27314;DHT22;14800;48.174;9.798;2022-07-29T03:56:38;19.80;74.40
27314;DHT22;14800;48.174;9.798;2022-07-29T03:59:05;19.80;74.70
27314;DHT22;14800;48.174;9.798;2022-07-29T04:01:33;19.80;74.60
27314;DHT22;14800;48.174;9.798;2022-07-29T04:04:00;19.70;74.90
27314;DHT22;14800;48.174;9.798;2022-07-29T04:06:26;19.70;74.80
27314;DHT22;14800;48.174;9.798;2022-07-29T04:08:52;19.70;74.80
27314;DHT22;14800;48.174;9.798;2022-07-29T04:11:17;19.70;74.80
27314;DHT22;14800;48.174;9.798;2022-07-29T04:13:43;19.70;74.90
27314;DHT22;14800;48.174;9.798;2022-07-29T04:16:09;19.70;75.00
27314;DHT22;14800;48.174;9.798;2022-07-29T04:18:34;19.70;74.70
27314;DHT22;14800;48.174;9.798;2022-07-29T04:21:00;19.70;74.80
27314;DHT22;14800;48.174;9.798;2022-07-29T04:23:27;19.60;74.80
27314;DHT22;14800;48.174;9.798;2022-07-29T04:25:53;19.60;75.00
27314;DHT22;14800;48.174;9.798;2022-07-29T04:28:19;19.60;74.90
27314;DHT22;14800;48.174;9.798;2022-07-29T04:30:44;19.60;75.00
27314;DHT22;14800;48.174;9.798;2022-07-29T04:33:10;19.60;75.20
27314;DHT22;14800;48.174;9.798;2022-07-29T04:35:37;19.50;75.20
27314;DHT22;14800;48.174;9.798;2022-07-29T04:38:04;19.50;75.30
27314;DHT22;14800;48.174;9.798;2022-07-29T04:40:31;19.50;75.40
27314;DHT22;14800;48.174;9.798;2022-07-29T04:42:59;19.50;75.60
27314;DHT22;14800;48.174;9.798;2022-07-29T04:45:24;19.50;75.80
27314;DHT22;14800;48.174;9.798;2022-07-29T04:47:50;19.50;76.00
27314;DHT22;14800;48.174;9.798;2022-07-29T04:50:16;19.50;76.10
27314;DHT22;14800;48.174;9.798;2022-07-29T04:52:42;19.50;76.30
27314;DHT22;14800;48.174;9.798;2022-07-29T04:55:08;19.60;77.20
27314;DHT22;14800;48.174;9.798;2022-07-29T04:57:33;19.60;76.40
27314;DHT22;14800;48.174;9.798;2022-07-29T04:59:59;19.60;76.50
27314;DHT22;14800;48.174;9.798;2022-07-29T05:02:25;19.60;76.50
27314;DHT22;14800;48.174;9.798;2022-07-29T05:04:50;19.70;76.60
27314;DHT22;14800;48.174;9.798;2022-07-29T05:07:16;19.70;76.60
27314;DHT22;14800;48.174;9.798;2022-07-29T05:09:42;19.80;76.60
27314;DHT22;14800;48.174;9.798;2022-07-29T05:12:07;19.80;76.70
27314;DHT22;14800;48.174;9.798;2022-07-29T05:14:33;19.80;76.80
27314;DHT22;14800;48.174;9.798;2022-07-29T05:16:59;19.80;77.00
27314;DHT22;14800;48.174;9.798;2022-07-29T05:19:24;19.90;77.10
27314;DHT22;14800;48.174;9.798;2022-07-29T05:21:50;19.90;77.10
27314;DHT22;14800;48.174;9.798;2022-07-29T05:24:16;19.90;77.10
27314;DHT22;14800;48.174;9.798;2022-07-29T05:26:42;20.00;77.40
27314;DHT22;14800;48.174;9.798;2022-07-29T05:29:08;20.00;77.60
27314;DHT22;14800;48.174;9.798;2022-07-29T05:31:34;20.10;77.50
27314;DHT22;14800;48.174;9.798;2022-07-29T05:34:00;20.20;77.40
27314;DHT22;14800;48.174;9.798;2022-07-29T05:36:25;20.20;77.30
27314;DHT22;14800;48.174;9.798;2022-07-29T05:38:51;20.20;77.30
27314;DHT22;14800;48.174;9.798;2022-07-29T05:41:18;20.30;77.20
27314;DHT22;14800;48.174;9.798;2022-07-29T05:43:43;20.30;77.10
27314;DHT22;14800;48.174;9.798;2022-07-29T05:46:09;20.40;76.80
27314;DHT22;14800;48.174;9.798;2022-07-29T05:48:35;20.30;76.50
27314;DHT22;14800;48.174;9.798;2022-07-29T05:51:01;20.40;76.40
27314;DHT22;14800;48.174;9.798;2022-07-29T05:53:26;20.40;76.30
27314;DHT22;14800;48.174;9.798;2022-07-29T05:55:52;20.40;76.50
27314;DHT22;14800;48.174;9.798;2022-07-29T05:58:18;20.40;76.80
27314;DHT22;14800;48.174;9.798;2022-07-29T06:00:43;20.40;76.90
27314;DHT22;14800;48.174;9.798;2022-07-29T06:03:09;20.40;77.00
27314;DHT22;14800;48.174;9.798;2022-07-29T06:05:35;20.50;77.20
27314;DHT22;14800;48.174;9.798;2022-07-29T06:08:00;20.50;77.20
27314;DHT22;14800;48.174;9.798;2022-07-29T06:10:26;20.50;77.10
27314;DHT22;14800;48.174;9.798;2022-07-29T06:12:52;20.60;76.80
27314;DHT22;14800;48.174;9.798;2022-07-29T06:15:18;20.60;76.70
27314;DHT22;14800;48.174;9.798;2022-07-29T06:17:43;20.60;76.60
27314;DHT22;14800;48.174;9.798;2022-07-29T06:20:09;20.60;76.40
27314;DHT22;14800;48.174;9.798;2022-07-29T06:22:35;20.60;76.30
27314;DHT22;14800;48.174;9.798;2022-07-29T06:25:02;20.70;76.20
27314;DHT22;14800;48.174;9.798;2022-07-29T06:27:27;20.70;76.10
27314;DHT22;14800;48.174;9.798;2022-07-29T06:29:53;20.70;76.10
27314;DHT22;14800;48.174;9.798;2022-07-29T06:32:19;20.70;76.10
27314;DHT22;14800;48.174;9.798;2022-07-29T06:34:45;20.70;76.30
27314;DHT22;14800;48.174;9.798;2022-07-29T06:37:10;20.80;76.50
27314;DHT22;14800;48.174;9.798;2022-07-29T06:39:36;20.80;76.20
27314;DHT22;14800;48.174;9.798;2022-07-29T06:42:05;20.80;76.20
27314;DHT22;14800;48.174;9.798;2022-07-29T06:44:31;20.80;76.30
27314;DHT22;14800;48.174;9.798;2022-07-29T06:46:59;20.80;75.90
27314;DHT22;14800;48.174;9.798;2022-07-29T06:49:25;20.90;76.20
27314;DHT22;14800;48.174;9.798;2022-07-29T06:51:52;20.90;76.30
27314;DHT22;14800;48.174;9.798;2022-07-29T06:54:17;20.90;76.40
27314;DHT22;14800;48.174;9.798;2022-07-29T06:56:43;20.90;76.40
27314;DHT22;14800;48.174;9.798;2022-07-29T06:59:10;21.00;76.30
27314;DHT22;14800;48.174;9.798;2022-07-29T07:01:40;21.00;76.00
27314;DHT22;14800;48.174;9.798;2022-07-29T07:04:08;21.10;76.50
27314;DHT22;14800;48.174;9.798;2022-07-29T07:06:36;21.10;76.30
27314;DHT22;14800;48.174;9.798;2022-07-29T07:09:03;21.20;76.10
27314;DHT22;14800;48.174;9.798;2022-07-29T07:11:28;21.20;77.20
27314;DHT22;14800;48.174;9.798;2022-07-29T07:13:54;21.30;76.30
27314;DHT22;14800;48.174;9.798;2022-07-29T07:16:20;21.30;75.80
27314;DHT22;14800;48.174;9.798;2022-07-29T07:18:45;21.40;75.70
27314;DHT22;14800;48.174;9.798;2022-07-29T07:21:11;21.40;76.00
27314;DHT22;14800;48.174;9.798;2022-07-29T07:23:37;21.40;76.00
27314;DHT22;14800;48.174;9.798;2022-07-29T07:26:02;21.50;75.60
27314;DHT22;14800;48.174;9.798;2022-07-29T07:28:28;21.50;75.60
27314;DHT22;14800;48.174;9.798;2022-07-29T07:30:54;21.60;75.60
27314;DHT22;14800;48.174;9.798;2022-07-29T07:33:20;21.60;75.40
27314;DHT22;14800;48.174;9.798;2022-07-29T07:35:46;21.60;75.10
27314;DHT22;14800;48.174;9.798;2022-07-29T07:38:12;21.70;75.10
27314;DHT22;14800;48.174;9.798;2022-07-29T07:40:37;21.80;74.90
27314;DHT22;14800;48.174;9.798;2022-07-29T07:43:03;21.80;74.80
27314;DHT22;14800;48.174;9.798;2022-07-29T07:45:28;21.80;74.70
27314;DHT22;14800;48.174;9.798;2022-07-29T07:47:54;21.90;75.10
27314;DHT22;14800;48.174;9.798;2022-07-29T07:50:20;22.00;74.90
27314;DHT22;14800;48.174;9.798;2022-07-29T07:52:53;22.00;74.60
27314;DHT22;14800;48.174;9.798;2022-07-29T07:55:20;22.10;74.90
27314;DHT22;14800;48.174;9.798;2022-07-29T07:57:46;22.10;74.60
27314;DHT22;14800;48.174;9.798;2022-07-29T08:00:13;22.20;75.00
27314;DHT22;14800;48.174;9.798;2022-07-29T08:02:40;22.30;73.90
27314;DHT22;14800;48.174;9.798;2022-07-29T08:05:07;22.30;74.50
27314;DHT22;14800;48.174;9.798;2022-07-29T08:07:33;22.40;74.70
27314;DHT22;14800;48.174;9.798;2022-07-29T08:09:58;22.40;74.10
27314;DHT22;14800;48.174;9.798;2022-07-29T08:12:24;22.50;74.00
27314;DHT22;14800;48.174;9.798;2022-07-29T08:14:50;22.60;73.90
27314;DHT22;14800;48.174;9.798;2022-07-29T08:17:15;22.60;73.90
27314;DHT22;14800;48.174;9.798;2022-07-29T08:19:41;22.70;73.90
27314;DHT22;14800;48.174;9.798;2022-07-29T08:22:07;22.70;73.80
27314;DHT22;14800;48.174;9.798;2022-07-29T08:24:32;22.80;73.80
27314;DHT22;14800;48.174;9.798;2022-07-29T08:27:17;22.90;73.90
27314;DHT22;14800;48.174;9.798;2022-07-29T08:29:43;22.90;73.70
27314;DHT22;14800;48.174;9.798;2022-07-29T08:32:08;22.90;73.50
27314;DHT22;14800;48.174;9.798;2022-07-29T08:34:34;23.00;74.20
27314;DHT22;14800;48.174;9.798;2022-07-29T08:36:59;23.00;73.90
27314;DHT22;14800;48.174;9.798;2022-07-29T08:39:25;23.10;73.90
27314;DHT22;14800;48.174;9.798;2022-07-29T08:41:51;23.10;73.90
27314;DHT22;14800;48.174;9.798;2022-07-29T08:44:18;23.20;73.70
27314;DHT22;14800;48.174;9.798;2022-07-29T08:46:45;23.20;73.30
27314;DHT22;14800;48.174;9.798;2022-07-29T08:49:11;23.20;73.30
27314;DHT22;14800;48.174;9.798;2022-07-29T08:51:39;23.30;73.20
27314;DHT22;14800;48.174;9.798;2022-07-29T08:54:05;23.30;73.40
27314;DHT22;14800;48.174;9.798;2022-07-29T08:56:32;23.30;73.30
27314;DHT22;14800;48.174;9.798;2022-07-29T08:59:02;23.30;72.80
27314;DHT22;14800;48.174;9.798;2022-07-29T09:01:29;23.40;73.00
27314;DHT22;14800;48.174;9.798;2022-07-29T09:03:56;23.40;73.00
27314;DHT22;14800;48.174;9.798;2022-07-29T09:06:24;23.50;72.80
27314;DHT22;14800;48.174;9.798;2022-07-29T09:08:54;23.50;72.80
27314;DHT22;14800;48.174;9.798;2022-07-29T09:11:20;23.60;73.00
27314;DHT22;14800;48.174;9.798;2022-07-29T09:13:46;23.70;72.80
27314;DHT22;14800;48.174;9.798;2022-07-29T09:16:11;23.80;72.80
27314;DHT22;14800;48.174;9.798;2022-07-29T09:18:40;23.90;72.00
27314;DHT22;14800;48.174;9.798;2022-07-29T09:21:08;23.90;71.70
27314;DHT22;14800;48.174;9.798;2022-07-29T09:26:28;24.10;71.80
27314;DHT22;14800;48.174;9.798;2022-07-29T09:28:55;24.10;71.60
27314;DHT22;14800;48.174;9.798;2022-07-29T09:31:32;24.10;72.30
27314;DHT22;14800;48.174;9.798;2022-07-29T09:33:58;24.20;71.30
27314;DHT22;14800;48.174;9.798;2022-07-29T09:36:26;24.20;71.30
27314;DHT22;14800;48.174;9.798;2022-07-29T09:38:59;24.20;71.40
27314;DHT22;14800;48.174;9.798;2022-07-29T09:41:25;24.30;71.80
27314;DHT22;14800;48.174;9.798;2022-07-29T09:43:58;24.30;71.50
27314;DHT22;14800;48.174;9.798;2022-07-29T09:46:25;24.40;70.70
27314;DHT22;14800;48.174;9.798;2022-07-29T09:49:11;24.40;71.00
27314;DHT22;14800;48.174;9.798;2022-07-29T09:51:38;24.50;70.40
27314;DHT22;14800;48.174;9.798;2022-07-29T09:54:24;24.50;70.00
27314;DHT22;14800;48.174;9.798;2022-07-29T09:56:50;24.60;69.20
27314;DHT22;14800;48.174;9.798;2022-07-29T09:59:16;24.60;69.30
27314;DHT22;14800;48.174;9.798;2022-07-29T10:01:42;24.60;69.20
27314;DHT22;14800;48.174;9.798;2022-07-29T10:04:08;24.60;69.20
27314;DHT22;14800;48.174;9.798;2022-07-29T10:06:34;24.60;69.30
27314;DHT22;14800;48.174;9.798;2022-07-29T10:09:10;24.60;68.80
27314;DHT22;14800;48.174;9.798;2022-07-29T10:11:36;24.60;68.10
27314;DHT22;14800;48.174;9.798;2022-07-29T10:14:03;24.60;68.80
27314;DHT22;14800;48.174;9.798;2022-07-29T10:16:29;24.50;68.90
27314;DHT22;14800;48.174;9.798;2022-07-29T10:18:58;24.50;69.40
27314;DHT22;14800;48.174;9.798;2022-07-29T10:21:25;24.50;68.80
27314;DHT22;14800;48.174;9.798;2022-07-29T10:23:52;24.50;69.20
27314;DHT22;14800;48.174;9.798;2022-07-29T10:26:19;24.50;68.00
27314;DHT22;14800;48.174;9.798;2022-07-29T10:28:45;24.50;67.50
27314;DHT22;14800;48.174;9.798;2022-07-29T10:31:28;24.50;67.50
27314;DHT22;14800;48.174;9.798;2022-07-29T10:34:13;24.50;66.50
27314;DHT22;14800;48.174;9.798;2022-07-29T10:37:12;24.50;66.40
27314;DHT22;14800;48.174;9.798;2022-07-29T10:42:53;24.60;64.80
27314;DHT22;14800;48.174;9.798;2022-07-29T10:45:19;24.60;65.70
27314;DHT22;14800;48.174;9.798;2022-07-29T10:47:45;24.60;65.20
27314;DHT22;14800;48.174;9.798;2022-07-29T10:50:11;24.70;64.80
27314;DHT22;14800;48.174;9.798;2022-07-29T10:52:55;24.70;64.10
27314;DHT22;14800;48.174;9.798;2022-07-29T10:55:38;24.80;63.60
27314;DHT22;14800;48.174;9.798;2022-07-29T10:58:22;25.00;62.90
27314;DHT22;14800;48.174;9.798;2022-07-29T11:00:52;25.00;62.00
27314;DHT22;14800;48.174;9.798;2022-07-29T11:06:06;25.20;61.60
27314;DHT22;14800;48.174;9.798;2022-07-29T11:08:31;25.20;62.10
27314;DHT22;14800;48.174;9.798;2022-07-29T11:16:12;25.30;61.10
27314;DHT22;14800;48.174;9.798;2022-07-29T11:21:41;25.30;61.30
27314;DHT22;14800;48.174;9.798;2022-07-29T11:24:32;25.30;63.10
27314;DHT22;14800;48.174;9.798;2022-07-29T11:27:17;25.30;62.20
27314;DHT22;14800;48.174;9.798;2022-07-29T11:32:15;25.30;63.20
27314;DHT22;14800;48.174;9.798;2022-07-29T11:34:43;25.30;64.00
27314;DHT22;14800;48.174;9.798;2022-07-29T11:39:36;25.30;64.90
27314;DHT22;14800;48.174;9.798;2022-07-29T11:47:25;25.20;67.30
27314;DHT22;14800;48.174;9.798;2022-07-29T11:49:51;25.20;66.80
27314;DHT22;14800;48.174;9.798;2022-07-29T11:52:18;25.20;67.00
27314;DHT22;14800;48.174;9.798;2022-07-29T11:54:44;25.20;67.30
27314;DHT22;14800;48.174;9.798;2022-07-29T11:57:12;25.20;67.80
27314;DHT22;14800;48.174;9.798;2022-07-29T11:59:42;25.30;67.20
27314;DHT22;14800;48.174;9.798;2022-07-29T12:02:08;25.30;66.60
27314;DHT22;14800;48.174;9.798;2022-07-29T12:04:48;25.30;66.80
27314;DHT22;14800;48.174;9.798;2022-07-29T12:07:15;25.30;66.50
27314;DHT22;14800;48.174;9.798;2022-07-29T12:09:49;25.30;67.60
27314;DHT22;14800;48.174;9.798;2022-07-29T12:12:17;25.30;66.90
27314;DHT22;14800;48.174;9.798;2022-07-29T12:14:42;25.30;66.80
27314;DHT22;14800;48.174;9.798;2022-07-29T12:19:51;25.40;66.30
27314;DHT22;14800;48.174;9.798;2022-07-29T12:22:38;25.40;65.90
27314;DHT22;14800;48.174;9.798;2022-07-29T12:25:06;25.40;65.80
27314;DHT22;14800;48.174;9.798;2022-07-29T12:27:33;25.50;65.90
27314;DHT22;14800;48.174;9.798;2022-07-29T12:30:00;25.50;65.90
27314;DHT22;14800;48.174;9.798;2022-07-29T12:32:37;25.60;65.60
27314;DHT22;14800;48.174;9.798;2022-07-29T12:35:11;25.70;64.00
27314;DHT22;14800;48.174;9.798;2022-07-29T12:37:38;25.80;64.50
27314;DHT22;14800;48.174;9.798;2022-07-29T12:40:06;25.90;63.60
27314;DHT22;14800;48.174;9.798;2022-07-29T12:42:32;25.90;63.30
27314;DHT22;14800;48.174;9.798;2022-07-29T12:44:58;26.00;62.50
27314;DHT22;14800;48.174;9.798;2022-07-29T12:47:24;26.10;62.00
27314;DHT22;14800;48.174;9.798;2022-07-29T12:49:51;26.10;62.00
27314;DHT22;14800;48.174;9.798;2022-07-29T12:52:33;26.20;61.80
27314;DHT22;14800;48.174;9.798;2022-07-29T12:54:59;26.40;61.30
27314;DHT22;14800;48.174;9.798;2022-07-29T12:57:26;26.40;60.70
27314;DHT22;14800;48.174;9.798;2022-07-29T13:00:11;26.50;60.80
27314;DHT22;14800;48.174;9.798;2022-07-29T13:02:38;26.60;59.60
27314;DHT22;14800;48.174;9.798;2022-07-29T13:05:06;26.60;59.80
27314;DHT22;14800;48.174;9.798;2022-07-29T13:07:33;26.70;59.80
27314;DHT22;14800;48.174;9.798;2022-07-29T13:10:18;26.70;59.60
27314;DHT22;14800;48.174;9.798;2022-07-29T13:15:29;26.80;56.90
27314;DHT22;14800;48.174;9.798;2022-07-29T13:17:55;26.90;58.30
27314;DHT22;14800;48.174;9.798;2022-07-29T13:20:24;27.00;58.30
27314;DHT22;14800;48.174;9.798;2022-07-29T13:22:50;27.10;56.70
27314;DHT22;14800;48.174;9.798;2022-07-29T13:25:32;27.10;56.50
27314;DHT22;14800;48.174;9.798;2022-07-29T13:27:59;27.20;56.30
27314;DHT22;14800;48.174;9.798;2022-07-29T13:30:25;27.30;56.60
27314;DHT22;14800;48.174;9.798;2022-07-29T13:32:52;27.30;56.20
27314;DHT22;14800;48.174;9.798;2022-07-29T13:35:19;27.30;56.10
27314;DHT22;14800;48.174;9.798;2022-07-29T13:37:45;27.30;56.10
27314;DHT22;14800;48.174;9.798;2022-07-29T13:40:12;27.30;56.40
27314;DHT22;14800;48.174;9.798;2022-07-29T13:42:39;27.30;55.70
27314;DHT22;14800;48.174;9.798;2022-07-29T13:45:05;27.30;55.30
27314;DHT22;14800;48.174;9.798;2022-07-29T13:47:32;27.30;55.50
27314;DHT22;14800;48.174;9.798;2022-07-29T13:49:57;27.30;55.70
27314;DHT22;14800;48.174;9.798;2022-07-29T13:52:23;27.30;55.80
27314;DHT22;14800;48.174;9.798;2022-07-29T13:54:48;27.30;56.00
27314;DHT22;14800;48.174;9.798;2022-07-29T13:57:15;27.30;55.80
27314;DHT22;14800;48.174;9.798;2022-07-29T13:59:42;27.30;56.00
27314;DHT22;14800;48.174;9.798;2022-07-29T14:02:08;27.30;56.40
27314;DHT22;14800;48.174;9.798;2022-07-29T14:04:34;27.40;56.40
27314;DHT22;14800;48.174;9.798;2022-07-29T14:07:00;27.40;56.00
27314;DHT22;14800;48.174;9.798;2022-07-29T14:09:25;27.40;55.90
27314;DHT22;14800;48.174;9.798;2022-07-29T14:11:51;27.40;55.40
27314;DHT22;14800;48.174;9.798;2022-07-29T14:14:18;27.40;55.40
27314;DHT22;14800;48.174;9.798;2022-07-29T14:16:44;27.40;55.40
27314;DHT22;14800;48.174;9.798;2022-07-29T14:19:10;27.50;55.60
27314;DHT22;14800;48.174;9.798;2022-07-29T14:21:37;27.50;55.30
27314;DHT22;14800;48.174;9.798;2022-07-29T14:24:02;27.50;55.10
27314;DHT22;14800;48.174;9.798;2022-07-29T14:26:28;27.40;54.00
27314;DHT22;14800;48.174;9.798;2022-07-29T14:28:54;27.30;53.90
27314;DHT22;14800;48.174;9.798;2022-07-29T14:31:19;27.20;54.20
27314;DHT22;14800;48.174;9.798;2022-07-29T14:33:45;27.10;54.60
27314;DHT22;14800;48.174;9.798;2022-07-29T14:36:11;26.90;55.00
27314;DHT22;14800;48.174;9.798;2022-07-29T14:38:36;26.90;55.30
27314;DHT22;14800;48.174;9.798;2022-07-29T14:41:06;26.80;55.00
27314;DHT22;14800;48.174;9.798;2022-07-29T14:43:34;26.70;55.00
27314;DHT22;14800;48.174;9.798;2022-07-29T14:46:00;26.60;55.00
27314;DHT22;14800;48.174;9.798;2022-07-29T14:48:26;26.40;55.10
27314;DHT22;14800;48.174;9.798;2022-07-29T14:50:52;26.30;55.20
27314;DHT22;14800;48.174;9.798;2022-07-29T14:53:17;26.00;54.90
27314;DHT22;14800;48.174;9.798;2022-07-29T14:55:44;25.80;54.60
27314;DHT22;14800;48.174;9.798;2022-07-29T14:58:10;25.60;54.30
27314;DHT22;14800;48.174;9.798;2022-07-29T15:00:36;25.40;54.70
27314;DHT22;14800;48.174;9.798;2022-07-29T15:03:03;25.10;55.30
27314;DHT22;14800;48.174;9.798;2022-07-29T15:05:29;24.90;56.00
27314;DHT22;14800;48.174;9.798;2022-07-29T15:07:55;24.70;56.30
27314;DHT22;14800;48.174;9.798;2022-07-29T15:10:21;24.50;56.90
27314;DHT22;14800;48.174;9.798;2022-07-29T15:12:47;24.30;57.60
27314;DHT22;14800;48.174;9.798;2022-07-29T15:15:12;24.10;58.30
27314;DHT22;14800;48.174;9.798;2022-07-29T15:17:38;23.90;58.80
27314;DHT22;14800;48.174;9.798;2022-07-29T15:20:04;23.80;59.70
27314;DHT22;14800;48.174;9.798;2022-07-29T15:22:30;23.60;60.50
27314;DHT22;14800;48.174;9.798;2022-07-29T15:24:55;23.50;61.20
27314;DHT22;14800;48.174;9.798;2022-07-29T15:27:21;23.40;62.20
27314;DHT22;14800;48.174;9.798;2022-07-29T15:29:47;23.30;63.20
27314;DHT22;14800;48.174;9.798;2022-07-29T15:32:12;23.30;63.40
27314;DHT22;14800;48.174;9.798;2022-07-29T15:34:39;23.30;64.20
27314;DHT22;14800;48.174;9.798;2022-07-29T15:37:05;23.30;64.60
27314;DHT22;14800;48.174;9.798;2022-07-29T15:39:31;23.30;64.70
27314;DHT22;14800;48.174;9.798;2022-07-29T15:41:56;23.30;65.20
27314;DHT22;14800;48.174;9.798;2022-07-29T15:44:24;23.30;65.70
27314;DHT22;14800;48.174;9.798;2022-07-29T15:46:49;23.40;66.40
27314;DHT22;14800;48.174;9.798;2022-07-29T15:49:34;23.40;66.40
27314;DHT22;14800;48.174;9.798;2022-07-29T15:52:02;23.40;66.50
27314;DHT22;14800;48.174;9.798;2022-07-29T15:54:28;23.40;66.50
27314;DHT22;14800;48.174;9.798;2022-07-29T15:56:54;23.40;66.90
27314;DHT22;14800;48.174;9.798;2022-07-29T15:59:21;23.40;67.40
27314;DHT22;14800;48.174;9.798;2022-07-29T16:01:46;23.40;68.10
27314;DHT22;14800;48.174;9.798;2022-07-29T16:04:12;23.40;68.00
27314;DHT22;14800;48.174;9.798;2022-07-29T16:06:38;23.40;67.70
27314;DHT22;14800;48.174;9.798;2022-07-29T16:09:03;23.50;67.40
27314;DHT22;14800;48.174;9.798;2022-07-29T16:11:29;23.50;67.80
27314;DHT22;14800;48.174;9.798;2022-07-29T16:13:55;23.50;67.80
27314;DHT22;14800;48.174;9.798;2022-07-29T16:16:20;23.50;68.30
27314;DHT22;14800;48.174;9.798;2022-07-29T16:18:46;23.60;68.40
27314;DHT22;14800;48.174;9.798;2022-07-29T16:21:12;23.60;68.20
27314;DHT22;14800;48.174;9.798;2022-07-29T16:23:38;23.60;68.60